Lockbridge, West Virginia
Current Conditions -  °F | °C
As of 3:51 AM on Friday 28 Nov 2014 (Local Time) from KBKW Reporting Station
Overcast Overcast  
Wind Chill: 13°   Ceiling: 3900
Heat Index: 23°   Visibility: 10mi
Dew Point: 15°   Wind: 9mph
Humidity: 72%   Direction: 300°WNW
Pressure: 30.23"   Gusts: NA
Location:  37.8836°N, 80.8452°W
Report Text: KBKW 280851Z AUTO 30008KT 10SM OVC039 M05/M09 A3023 RMK AO2 SNE0756 SLP276 P0000 60000 T10501094 51006
Loading
Personal Weather Stations






























Interactive Weather Map New forecast layout! Learn more

10-Day Weather Forecast

Advertisements
Track Severe Weather on mobile